sensor_id;sensor_type;location;lat;lon;timestamp;P1;durP1;ratioP1;P2;durP2;ratioP2
56255;SDS011;57229;51.432;-2.598;2023-10-08T00:01:18;14.98;;;7.72;;
56255;SDS011;57229;51.432;-2.598;2023-10-08T00:03:46;12.73;;;7.70;;
56255;SDS011;57229;51.432;-2.598;2023-10-08T00:06:16;10.13;;;7.53;;
56255;SDS011;57229;51.432;-2.598;2023-10-08T00:08:45;12.35;;;7.95;;
56255;SDS011;57229;51.432;-2.598;2023-10-08T00:11:11;14.05;;;7.55;;
56255;SDS011;57229;51.432;-2.598;2023-10-08T00:13:37;10.23;;;7.85;;
56255;SDS011;57229;51.432;-2.598;2023-10-08T00:16:06;13.20;;;7.75;;
56255;SDS011;57229;51.432;-2.598;2023-10-08T00:18:36;13.73;;;8.15;;
56255;SDS011;57229;51.432;-2.598;2023-10-08T00:21:07;10.95;;;8.07;;
56255;SDS011;57229;51.432;-2.598;2023-10-08T00:23:36;11.90;;;8.23;;
56255;SDS011;57229;51.432;-2.598;2023-10-08T00:26:07;11.02;;;7.78;;
56255;SDS011;57229;51.432;-2.598;2023-10-08T00:28:33;12.23;;;8.35;;
56255;SDS011;57229;51.432;-2.598;2023-10-08T00:31:01;11.95;;;8.02;;
56255;SDS011;57229;51.432;-2.598;2023-10-08T00:33:38;14.27;;;7.55;;
56255;SDS011;57229;51.432;-2.598;2023-10-08T00:36:09;10.85;;;7.10;;
56255;SDS011;57229;51.432;-2.598;2023-10-08T00:38:48;11.40;;;7.65;;
56255;SDS011;57229;51.432;-2.598;2023-10-08T00:41:17;15.75;;;8.80;;
56255;SDS011;57229;51.432;-2.598;2023-10-08T00:43:47;12.50;;;7.80;;
56255;SDS011;57229;51.432;-2.598;2023-10-08T00:46:13;12.02;;;8.38;;
56255;SDS011;57229;51.432;-2.598;2023-10-08T00:49:17;13.85;;;7.40;;
56255;SDS011;57229;51.432;-2.598;2023-10-08T00:51:47;14.13;;;8.20;;
56255;SDS011;57229;51.432;-2.598;2023-10-08T00:54:25;12.57;;;7.65;;
56255;SDS011;57229;51.432;-2.598;2023-10-08T00:56:55;14.82;;;7.97;;
56255;SDS011;57229;51.432;-2.598;2023-10-08T00:59:26;12.00;;;7.70;;
56255;SDS011;57229;51.432;-2.598;2023-10-08T01:01:58;13.75;;;7.68;;
56255;SDS011;57229;51.432;-2.598;2023-10-08T01:04:29;11.73;;;7.65;;
56255;SDS011;57229;51.432;-2.598;2023-10-08T01:06:59;16.75;;;8.25;;
56255;SDS011;57229;51.432;-2.598;2023-10-08T01:09:37;16.98;;;9.20;;
56255;SDS011;57229;51.432;-2.598;2023-10-08T01:14:41;18.45;;;9.60;;
56255;SDS011;57229;51.432;-2.598;2023-10-08T01:17:10;17.67;;;9.15;;
56255;SDS011;57229;51.432;-2.598;2023-10-08T01:19:44;14.85;;;8.23;;
56255;SDS011;57229;51.432;-2.598;2023-10-08T01:22:15;12.52;;;7.60;;
56255;SDS011;57229;51.432;-2.598;2023-10-08T01:24:46;11.98;;;8.18;;
56255;SDS011;57229;51.432;-2.598;2023-10-08T01:27:16;13.10;;;7.80;;
56255;SDS011;57229;51.432;-2.598;2023-10-08T01:29:53;15.52;;;8.10;;
56255;SDS011;57229;51.432;-2.598;2023-10-08T01:32:19;14.70;;;7.97;;
56255;SDS011;57229;51.432;-2.598;2023-10-08T01:34:48;11.43;;;7.85;;
56255;SDS011;57229;51.432;-2.598;2023-10-08T01:37:17;12.35;;;7.90;;
56255;SDS011;57229;51.432;-2.598;2023-10-08T01:39:46;9.90;;;7.85;;
56255;SDS011;57229;51.432;-2.598;2023-10-08T01:42:15;11.57;;;7.78;;
56255;SDS011;57229;51.432;-2.598;2023-10-08T01:44:43;12.60;;;7.80;;
56255;SDS011;57229;51.432;-2.598;2023-10-08T01:47:13;12.63;;;7.78;;
56255;SDS011;57229;51.432;-2.598;2023-10-08T01:49:41;15.93;;;8.40;;
56255;SDS011;57229;51.432;-2.598;2023-10-08T01:52:09;12.55;;;8.05;;
56255;SDS011;57229;51.432;-2.598;2023-10-08T01:54:48;11.70;;;7.70;;
56255;SDS011;57229;51.432;-2.598;2023-10-08T01:57:14;19.55;;;8.60;;
56255;SDS011;57229;51.432;-2.598;2023-10-08T01:59:42;14.05;;;8.00;;
56255;SDS011;57229;51.432;-2.598;2023-10-08T02:02:09;11.88;;;8.25;;
56255;SDS011;57229;51.432;-2.598;2023-10-08T02:04:35;12.98;;;7.90;;
56255;SDS011;57229;51.432;-2.598;2023-10-08T02:07:04;14.02;;;8.52;;
56255;SDS011;57229;51.432;-2.598;2023-10-08T02:09:36;9.50;;;8.10;;
56255;SDS011;57229;51.432;-2.598;2023-10-08T02:12:02;14.20;;;7.93;;
56255;SDS011;57229;51.432;-2.598;2023-10-08T02:14:28;12.27;;;7.60;;
56255;SDS011;57229;51.432;-2.598;2023-10-08T02:16:56;11.38;;;7.93;;
56255;SDS011;57229;51.432;-2.598;2023-10-08T02:19:26;13.20;;;8.00;;
56255;SDS011;57229;51.432;-2.598;2023-10-08T02:21:53;14.45;;;8.32;;
56255;SDS011;57229;51.432;-2.598;2023-10-08T02:24:20;9.90;;;7.47;;
56255;SDS011;57229;51.432;-2.598;2023-10-08T02:26:52;12.15;;;7.75;;
56255;SDS011;57229;51.432;-2.598;2023-10-08T02:29:20;12.38;;;7.47;;
56255;SDS011;57229;51.432;-2.598;2023-10-08T02:31:46;9.48;;;7.60;;
56255;SDS011;57229;51.432;-2.598;2023-10-08T02:34:13;11.85;;;7.80;;
56255;SDS011;57229;51.432;-2.598;2023-10-08T02:36:39;13.10;;;7.65;;
56255;SDS011;57229;51.432;-2.598;2023-10-08T02:39:08;12.68;;;7.68;;
56255;SDS011;57229;51.432;-2.598;2023-10-08T02:41:46;14.52;;;7.38;;
56255;SDS011;57229;51.432;-2.598;2023-10-08T02:44:12;8.27;;;7.47;;
56255;SDS011;57229;51.432;-2.598;2023-10-08T02:46:42;11.52;;;7.70;;
56255;SDS011;57229;51.432;-2.598;2023-10-08T02:49:12;11.73;;;7.68;;
56255;SDS011;57229;51.432;-2.598;2023-10-08T02:51:42;14.05;;;7.90;;
56255;SDS011;57229;51.432;-2.598;2023-10-08T02:54:10;13.05;;;7.50;;
56255;SDS011;57229;51.432;-2.598;2023-10-08T02:56:56;10.23;;;7.30;;
56255;SDS011;57229;51.432;-2.598;2023-10-08T02:59:27;11.10;;;7.30;;
56255;SDS011;57229;51.432;-2.598;2023-10-08T03:01:54;12.02;;;7.70;;
56255;SDS011;57229;51.432;-2.598;2023-10-08T03:04:21;15.82;;;7.47;;
56255;SDS011;57229;51.432;-2.598;2023-10-08T03:06:50;10.10;;;7.13;;
56255;SDS011;57229;51.432;-2.598;2023-10-08T03:09:17;12.35;;;7.47;;
56255;SDS011;57229;51.432;-2.598;2023-10-08T03:11:48;12.20;;;7.15;;
56255;SDS011;57229;51.432;-2.598;2023-10-08T03:14:18;11.70;;;7.38;;
56255;SDS011;57229;51.432;-2.598;2023-10-08T03:16:50;13.93;;;7.32;;
56255;SDS011;57229;51.432;-2.598;2023-10-08T03:19:18;10.57;;;7.15;;
56255;SDS011;57229;51.432;-2.598;2023-10-08T03:21:48;12.93;;;7.30;;
56255;SDS011;57229;51.432;-2.598;2023-10-08T03:24:16;12.50;;;7.50;;
56255;SDS011;57229;51.432;-2.598;2023-10-08T03:26:55;14.75;;;7.57;;
56255;SDS011;57229;51.432;-2.598;2023-10-08T03:29:31;15.18;;;7.75;;
56255;SDS011;57229;51.432;-2.598;2023-10-08T03:32:09;13.55;;;8.05;;
56255;SDS011;57229;51.432;-2.598;2023-10-08T03:34:43;15.05;;;8.25;;
56255;SDS011;57229;51.432;-2.598;2023-10-08T03:37:13;11.13;;;8.20;;
56255;SDS011;57229;51.432;-2.598;2023-10-08T03:39:48;10.30;;;7.72;;
56255;SDS011;57229;51.432;-2.598;2023-10-08T03:42:21;14.93;;;8.02;;
56255;SDS011;57229;51.432;-2.598;2023-10-08T03:44:48;12.82;;;8.98;;
56255;SDS011;57229;51.432;-2.598;2023-10-08T03:47:20;11.40;;;8.32;;
56255;SDS011;57229;51.432;-2.598;2023-10-08T03:49:51;13.07;;;9.10;;
56255;SDS011;57229;51.432;-2.598;2023-10-08T03:52:19;12.02;;;8.18;;
56255;SDS011;57229;51.432;-2.598;2023-10-08T03:54:50;14.88;;;8.18;;
56255;SDS011;57229;51.432;-2.598;2023-10-08T03:57:36;13.77;;;7.95;;
56255;SDS011;57229;51.432;-2.598;2023-10-08T04:00:08;12.60;;;8.18;;
56255;SDS011;57229;51.432;-2.598;2023-10-08T04:02:39;13.20;;;8.57;;
56255;SDS011;57229;51.432;-2.598;2023-10-08T04:05:05;15.48;;;8.35;;
56255;SDS011;57229;51.432;-2.598;2023-10-08T04:07:44;11.73;;;8.02;;
56255;SDS011;57229;51.432;-2.598;2023-10-08T04:10:28;11.55;;;7.28;;
56255;SDS011;57229;51.432;-2.598;2023-10-08T04:13:04;9.52;;;7.68;;
56255;SDS011;57229;51.432;-2.598;2023-10-08T04:15:34;11.57;;;8.18;;
56255;SDS011;57229;51.432;-2.598;2023-10-08T04:18:00;15.00;;;8.27;;
56255;SDS011;57229;51.432;-2.598;2023-10-08T04:20:27;14.18;;;8.00;;
56255;SDS011;57229;51.432;-2.598;2023-10-08T04:23:09;11.02;;;7.55;;
56255;SDS011;57229;51.432;-2.598;2023-10-08T04:25:45;13.88;;;8.18;;
56255;SDS011;57229;51.432;-2.598;2023-10-08T04:28:19;10.40;;;7.88;;
56255;SDS011;57229;51.432;-2.598;2023-10-08T04:30:45;18.88;;;8.18;;
56255;SDS011;57229;51.432;-2.598;2023-10-08T04:33:18;13.10;;;7.60;;
56255;SDS011;57229;51.432;-2.598;2023-10-08T04:35:44;13.82;;;7.97;;
56255;SDS011;57229;51.432;-2.598;2023-10-08T04:38:15;10.10;;;8.10;;
56255;SDS011;57229;51.432;-2.598;2023-10-08T04:40:43;16.30;;;8.45;;
56255;SDS011;57229;51.432;-2.598;2023-10-08T04:43:19;12.15;;;9.38;;
56255;SDS011;57229;51.432;-2.598;2023-10-08T04:45:55;11.48;;;8.35;;
56255;SDS011;57229;51.432;-2.598;2023-10-08T04:48:31;12.75;;;7.38;;
56255;SDS011;57229;51.432;-2.598;2023-10-08T04:50:57;13.60;;;7.55;;
56255;SDS011;57229;51.432;-2.598;2023-10-08T04:53:30;11.93;;;7.45;;
56255;SDS011;57229;51.432;-2.598;2023-10-08T04:56:01;9.10;;;7.55;;
56255;SDS011;57229;51.432;-2.598;2023-10-08T04:58:32;14.80;;;8.07;;
56255;SDS011;57229;51.432;-2.598;2023-10-08T05:01:05;13.90;;;8.35;;
56255;SDS011;57229;51.432;-2.598;2023-10-08T05:03:54;10.27;;;7.70;;
56255;SDS011;57229;51.432;-2.598;2023-10-08T05:11:36;10.98;;;7.75;;
56255;SDS011;57229;51.432;-2.598;2023-10-08T05:14:12;12.60;;;8.25;;
56255;SDS011;57229;51.432;-2.598;2023-10-08T05:16:55;12.20;;;8.25;;
56255;SDS011;57229;51.432;-2.598;2023-10-08T05:19:40;14.00;;;8.98;;
56255;SDS011;57229;51.432;-2.598;2023-10-08T05:22:10;17.77;;;9.38;;
56255;SDS011;57229;51.432;-2.598;2023-10-08T05:24:48;16.17;;;8.60;;
56255;SDS011;57229;51.432;-2.598;2023-10-08T05:27:45;14.27;;;9.00;;
56255;SDS011;57229;51.432;-2.598;2023-10-08T05:30:17;12.90;;;7.93;;
56255;SDS011;57229;51.432;-2.598;2023-10-08T05:33:02;12.60;;;8.80;;
56255;SDS011;57229;51.432;-2.598;2023-10-08T05:35:52;12.05;;;8.23;;
56255;SDS011;57229;51.432;-2.598;2023-10-08T05:38:34;14.60;;;9.10;;
56255;SDS011;57229;51.432;-2.598;2023-10-08T05:41:00;13.45;;;8.73;;
56255;SDS011;57229;51.432;-2.598;2023-10-08T05:46:08;12.25;;;8.30;;
56255;SDS011;57229;51.432;-2.598;2023-10-08T05:48:56;10.88;;;8.02;;
56255;SDS011;57229;51.432;-2.598;2023-10-08T05:51:30;14.85;;;8.30;;
56255;SDS011;57229;51.432;-2.598;2023-10-08T05:54:22;12.02;;;8.50;;
56255;SDS011;57229;51.432;-2.598;2023-10-08T05:56:55;10.77;;;8.25;;
56255;SDS011;57229;51.432;-2.598;2023-10-08T05:59:32;11.85;;;8.20;;
56255;SDS011;57229;51.432;-2.598;2023-10-08T06:02:06;11.80;;;8.38;;
56255;SDS011;57229;51.432;-2.598;2023-10-08T06:04:50;12.85;;;8.38;;
56255;SDS011;57229;51.432;-2.598;2023-10-08T06:07:49;12.00;;;8.35;;
56255;SDS011;57229;51.432;-2.598;2023-10-08T06:10:19;16.05;;;8.32;;
56255;SDS011;57229;51.432;-2.598;2023-10-08T06:12:55;13.05;;;9.30;;
56255;SDS011;57229;51.432;-2.598;2023-10-08T06:15:48;11.57;;;8.32;;
56255;SDS011;57229;51.432;-2.598;2023-10-08T06:20:56;15.85;;;8.82;;
56255;SDS011;57229;51.432;-2.598;2023-10-08T06:23:28;18.52;;;10.10;;
56255;SDS011;57229;51.432;-2.598;2023-10-08T06:28:33;13.85;;;9.55;;
56255;SDS011;57229;51.432;-2.598;2023-10-08T06:31:02;17.90;;;10.13;;
56255;SDS011;57229;51.432;-2.598;2023-10-08T06:33:31;16.95;;;9.40;;
56255;SDS011;57229;51.432;-2.598;2023-10-08T06:36:01;17.42;;;10.15;;
56255;SDS011;57229;51.432;-2.598;2023-10-08T06:38:31;14.05;;;9.43;;
56255;SDS011;57229;51.432;-2.598;2023-10-08T06:41:00;10.73;;;9.25;;
56255;SDS011;57229;51.432;-2.598;2023-10-08T06:43:42;13.48;;;9.15;;
56255;SDS011;57229;51.432;-2.598;2023-10-08T06:46:12;15.55;;;9.32;;
56255;SDS011;57229;51.432;-2.598;2023-10-08T06:48:39;13.38;;;8.75;;
56255;SDS011;57229;51.432;-2.598;2023-10-08T06:51:08;11.90;;;9.30;;
56255;SDS011;57229;51.432;-2.598;2023-10-08T06:53:41;12.23;;;9.15;;
56255;SDS011;57229;51.432;-2.598;2023-10-08T06:56:13;15.18;;;9.27;;
56255;SDS011;57229;51.432;-2.598;2023-10-08T06:58:41;15.07;;;8.93;;
56255;SDS011;57229;51.432;-2.598;2023-10-08T07:01:12;13.13;;;8.70;;
56255;SDS011;57229;51.432;-2.598;2023-10-08T07:03:46;11.93;;;8.70;;
56255;SDS011;57229;51.432;-2.598;2023-10-08T07:06:16;12.70;;;8.82;;
56255;SDS011;57229;51.432;-2.598;2023-10-08T07:08:51;11.85;;;8.60;;
56255;SDS011;57229;51.432;-2.598;2023-10-08T07:11:21;11.43;;;8.60;;
56255;SDS011;57229;51.432;-2.598;2023-10-08T07:13:47;13.48;;;9.35;;
56255;SDS011;57229;51.432;-2.598;2023-10-08T07:16:15;11.52;;;9.25;;
56255;SDS011;57229;51.432;-2.598;2023-10-08T07:18:42;13.80;;;8.93;;
56255;SDS011;57229;51.432;-2.598;2023-10-08T07:21:20;17.15;;;9.13;;
56255;SDS011;57229;51.432;-2.598;2023-10-08T07:24:03;11.30;;;8.27;;
56255;SDS011;57229;51.432;-2.598;2023-10-08T07:26:34;14.95;;;8.90;;
56255;SDS011;57229;51.432;-2.598;2023-10-08T07:29:03;10.27;;;7.80;;
56255;SDS011;57229;51.432;-2.598;2023-10-08T07:31:37;13.57;;;8.55;;
56255;SDS011;57229;51.432;-2.598;2023-10-08T07:34:06;12.93;;;8.20;;
56255;SDS011;57229;51.432;-2.598;2023-10-08T07:36:43;13.80;;;7.97;;
56255;SDS011;57229;51.432;-2.598;2023-10-08T07:39:12;12.00;;;8.30;;
56255;SDS011;57229;51.432;-2.598;2023-10-08T07:41:56;15.45;;;9.07;;
56255;SDS011;57229;51.432;-2.598;2023-10-08T07:44:24;14.63;;;9.40;;
56255;SDS011;57229;51.432;-2.598;2023-10-08T07:46:53;11.80;;;8.55;;
56255;SDS011;57229;51.432;-2.598;2023-10-08T07:49:20;13.82;;;8.50;;
56255;SDS011;57229;51.432;-2.598;2023-10-08T07:51:48;14.98;;;8.40;;
56255;SDS011;57229;51.432;-2.598;2023-10-08T07:54:20;14.77;;;8.60;;
56255;SDS011;57229;51.432;-2.598;2023-10-08T07:56:50;14.40;;;9.57;;
56255;SDS011;57229;51.432;-2.598;2023-10-08T07:59:40;14.40;;;9.35;;
56255;SDS011;57229;51.432;-2.598;2023-10-08T08:02:07;18.02;;;9.30;;
56255;SDS011;57229;51.432;-2.598;2023-10-08T08:04:37;16.30;;;9.82;;
56255;SDS011;57229;51.432;-2.598;2023-10-08T08:07:05;18.73;;;9.65;;
56255;SDS011;57229;51.432;-2.598;2023-10-08T08:09:31;20.08;;;9.65;;
56255;SDS011;57229;51.432;-2.598;2023-10-08T08:12:03;16.35;;;10.50;;
56255;SDS011;57229;51.432;-2.598;2023-10-08T08:14:32;17.48;;;10.25;;
56255;SDS011;57229;51.432;-2.598;2023-10-08T08:16:58;16.35;;;10.40;;
56255;SDS011;57229;51.432;-2.598;2023-10-08T08:19:38;17.20;;;10.13;;
56255;SDS011;57229;51.432;-2.598;2023-10-08T08:22:14;16.35;;;9.88;;
56255;SDS011;57229;51.432;-2.598;2023-10-08T08:24:49;12.25;;;9.52;;
56255;SDS011;57229;51.432;-2.598;2023-10-08T08:27:19;14.80;;;9.95;;
56255;SDS011;57229;51.432;-2.598;2023-10-08T08:29:56;16.63;;;10.23;;
56255;SDS011;57229;51.432;-2.598;2023-10-08T08:32:34;16.42;;;9.75;;
56255;SDS011;57229;51.432;-2.598;2023-10-08T08:35:04;16.63;;;10.50;;
56255;SDS011;57229;51.432;-2.598;2023-10-08T08:37:32;15.95;;;9.98;;
56255;SDS011;57229;51.432;-2.598;2023-10-08T08:40:01;17.40;;;10.57;;
56255;SDS011;57229;51.432;-2.598;2023-10-08T08:42:33;18.95;;;10.65;;
56255;SDS011;57229;51.432;-2.598;2023-10-08T08:45:00;18.65;;;9.90;;
56255;SDS011;57229;51.432;-2.598;2023-10-08T08:47:33;13.82;;;10.00;;
56255;SDS011;57229;51.432;-2.598;2023-10-08T08:50:01;22.92;;;10.93;;
56255;SDS011;57229;51.432;-2.598;2023-10-08T08:52:34;23.17;;;11.23;;
56255;SDS011;57229;51.432;-2.598;2023-10-08T08:55:02;13.93;;;10.40;;
56255;SDS011;57229;51.432;-2.598;2023-10-08T08:57:31;11.00;;;8.88;;
56255;SDS011;57229;51.432;-2.598;2023-10-08T08:59:58;12.68;;;9.40;;
56255;SDS011;57229;51.432;-2.598;2023-10-08T09:02:24;15.18;;;10.00;;
56255;SDS011;57229;51.432;-2.598;2023-10-08T09:04:50;17.88;;;9.02;;
56255;SDS011;57229;51.432;-2.598;2023-10-08T09:07:23;11.63;;;8.90;;
56255;SDS011;57229;51.432;-2.598;2023-10-08T09:09:49;10.80;;;7.57;;
56255;SDS011;57229;51.432;-2.598;2023-10-08T09:12:16;10.13;;;7.45;;
56255;SDS011;57229;51.432;-2.598;2023-10-08T09:14:42;12.48;;;7.80;;
56255;SDS011;57229;51.432;-2.598;2023-10-08T09:17:09;9.80;;;7.65;;
56255;SDS011;57229;51.432;-2.598;2023-10-08T09:19:36;10.80;;;8.15;;
56255;SDS011;57229;51.432;-2.598;2023-10-08T09:22:04;14.63;;;8.32;;
56255;SDS011;57229;51.432;-2.598;2023-10-08T09:24:35;11.95;;;7.78;;
56255;SDS011;57229;51.432;-2.598;2023-10-08T09:27:02;16.05;;;8.48;;
56255;SDS011;57229;51.432;-2.598;2023-10-08T09:29:31;13.82;;;8.40;;
56255;SDS011;57229;51.432;-2.598;2023-10-08T09:32:03;12.55;;;8.60;;
56255;SDS011;57229;51.432;-2.598;2023-10-08T09:34:30;18.33;;;8.00;;
56255;SDS011;57229;51.432;-2.598;2023-10-08T09:36:57;11.93;;;8.20;;
56255;SDS011;57229;51.432;-2.598;2023-10-08T09:39:27;11.07;;;7.63;;
56255;SDS011;57229;51.432;-2.598;2023-10-08T09:42:00;12.10;;;7.65;;
56255;SDS011;57229;51.432;-2.598;2023-10-08T09:44:36;11.15;;;6.35;;
56255;SDS011;57229;51.432;-2.598;2023-10-08T09:47:03;12.60;;;6.60;;
56255;SDS011;57229;51.432;-2.598;2023-10-08T09:49:40;10.55;;;6.47;;
56255;SDS011;57229;51.432;-2.598;2023-10-08T09:52:09;10.95;;;5.88;;
56255;SDS011;57229;51.432;-2.598;2023-10-08T09:54:42;9.90;;;5.72;;
56255;SDS011;57229;51.432;-2.598;2023-10-08T09:57:10;10.02;;;6.03;;
56255;SDS011;57229;51.432;-2.598;2023-10-08T09:59:36;7.97;;;6.45;;
56255;SDS011;57229;51.432;-2.598;2023-10-08T10:02:06;8.73;;;6.10;;
56255;SDS011;57229;51.432;-2.598;2023-10-08T10:04:34;11.88;;;6.75;;
56255;SDS011;57229;51.432;-2.598;2023-10-08T10:07:08;7.25;;;6.20;;
56255;SDS011;57229;51.432;-2.598;2023-10-08T10:09:42;6.82;;;5.93;;
56255;SDS011;57229;51.432;-2.598;2023-10-08T10:12:10;7.90;;;5.88;;
56255;SDS011;57229;51.432;-2.598;2023-10-08T10:14:46;8.68;;;5.25;;
56255;SDS011;57229;51.432;-2.598;2023-10-08T10:17:14;8.05;;;5.55;;
56255;SDS011;57229;51.432;-2.598;2023-10-08T10:19:43;8.60;;;6.13;;
56255;SDS011;57229;51.432;-2.598;2023-10-08T10:22:14;11.57;;;7.85;;
56255;SDS011;57229;51.432;-2.598;2023-10-08T10:24:52;9.15;;;6.13;;
56255;SDS011;57229;51.432;-2.598;2023-10-08T10:27:18;10.57;;;5.50;;
56255;SDS011;57229;51.432;-2.598;2023-10-08T10:29:44;8.57;;;5.60;;
56255;SDS011;57229;51.432;-2.598;2023-10-08T10:32:12;6.82;;;5.30;;
56255;SDS011;57229;51.432;-2.598;2023-10-08T10:34:40;6.00;;;5.38;;
56255;SDS011;57229;51.432;-2.598;2023-10-08T10:37:10;7.00;;;5.60;;
56255;SDS011;57229;51.432;-2.598;2023-10-08T10:39:57;8.80;;;5.88;;
56255;SDS011;57229;51.432;-2.598;2023-10-08T10:42:26;10.05;;;5.70;;
56255;SDS011;57229;51.432;-2.598;2023-10-08T10:44:53;9.38;;;5.72;;
56255;SDS011;57229;51.432;-2.598;2023-10-08T10:47:21;12.65;;;5.50;;
56255;SDS011;57229;51.432;-2.598;2023-10-08T10:49:50;6.93;;;5.68;;
56255;SDS011;57229;51.432;-2.598;2023-10-08T10:52:16;8.20;;;5.88;;
56255;SDS011;57229;51.432;-2.598;2023-10-08T10:55:10;5.70;;;4.80;;
56255;SDS011;57229;51.432;-2.598;2023-10-08T10:57:39;5.35;;;4.90;;
56255;SDS011;57229;51.432;-2.598;2023-10-08T11:00:07;8.00;;;5.30;;
56255;SDS011;57229;51.432;-2.598;2023-10-08T11:02:51;7.40;;;5.00;;
56255;SDS011;57229;51.432;-2.598;2023-10-08T11:05:21;6.05;;;4.88;;
56255;SDS011;57229;51.432;-2.598;2023-10-08T11:07:53;8.15;;;5.03;;
56255;SDS011;57229;51.432;-2.598;2023-10-08T11:10:25;7.00;;;5.03;;
56255;SDS011;57229;51.432;-2.598;2023-10-08T11:12:53;8.18;;;5.40;;
56255;SDS011;57229;51.432;-2.598;2023-10-08T11:15:19;6.20;;;5.10;;
56255;SDS011;57229;51.432;-2.598;2023-10-08T11:17:49;6.35;;;5.15;;
56255;SDS011;57229;51.432;-2.598;2023-10-08T11:20:25;5.70;;;5.10;;
56255;SDS011;57229;51.432;-2.598;2023-10-08T11:22:51;7.60;;;5.85;;
56255;SDS011;57229;51.432;-2.598;2023-10-08T11:25:24;8.32;;;5.82;;
56255;SDS011;57229;51.432;-2.598;2023-10-08T11:27:55;6.32;;;5.43;;
56255;SDS011;57229;51.432;-2.598;2023-10-08T11:30:28;5.80;;;5.18;;
56255;SDS011;57229;51.432;-2.598;2023-10-08T11:32:57;7.97;;;5.70;;
56255;SDS011;57229;51.432;-2.598;2023-10-08T11:35:24;7.57;;;5.28;;
56255;SDS011;57229;51.432;-2.598;2023-10-08T11:37:52;7.43;;;5.25;;
56255;SDS011;57229;51.432;-2.598;2023-10-08T11:40:23;6.85;;;5.20;;
56255;SDS011;57229;51.432;-2.598;2023-10-08T11:43:14;9.32;;;5.63;;
56255;SDS011;57229;51.432;-2.598;2023-10-08T11:45:43;8.30;;;5.28;;
56255;SDS011;57229;51.432;-2.598;2023-10-08T11:48:16;6.70;;;5.63;;
56255;SDS011;57229;51.432;-2.598;2023-10-08T11:50:51;7.70;;;5.28;;
56255;SDS011;57229;51.432;-2.598;2023-10-08T11:53:26;9.95;;;5.75;;
56255;SDS011;57229;51.432;-2.598;2023-10-08T11:55:53;7.05;;;5.25;;
56255;SDS011;57229;51.432;-2.598;2023-10-08T11:58:21;9.98;;;5.32;;
56255;SDS011;57229;51.432;-2.598;2023-10-08T12:01:01;11.05;;;5.30;;
56255;SDS011;57229;51.432;-2.598;2023-10-08T12:03:28;6.82;;;5.25;;
56255;SDS011;57229;51.432;-2.598;2023-10-08T12:05:54;7.82;;;4.97;;
56255;SDS011;57229;51.432;-2.598;2023-10-08T12:08:24;9.48;;;5.20;;
56255;SDS011;57229;51.432;-2.598;2023-10-08T12:10:52;8.23;;;5.20;;
56255;SDS011;57229;51.432;-2.598;2023-10-08T12:13:21;6.22;;;5.35;;
56255;SDS011;57229;51.432;-2.598;2023-10-08T12:15:53;7.00;;;5.68;;
56255;SDS011;57229;51.432;-2.598;2023-10-08T12:18:31;6.72;;;5.55;;
56255;SDS011;57229;51.432;-2.598;2023-10-08T12:21:04;9.55;;;5.82;;
56255;SDS011;57229;51.432;-2.598;2023-10-08T12:23:35;8.23;;;5.28;;
56255;SDS011;57229;51.432;-2.598;2023-10-08T12:26:02;7.65;;;5.60;;
56255;SDS011;57229;51.432;-2.598;2023-10-08T12:28:28;6.07;;;5.20;;
56255;SDS011;57229;51.432;-2.598;2023-10-08T12:30:54;7.53;;;5.13;;
56255;SDS011;57229;51.432;-2.598;2023-10-08T12:33:22;7.45;;;5.07;;
56255;SDS011;57229;51.432;-2.598;2023-10-08T12:35:51;5.93;;;4.75;;
56255;SDS011;57229;51.432;-2.598;2023-10-08T12:38:21;6.78;;;4.82;;
56255;SDS011;57229;51.432;-2.598;2023-10-08T12:40:47;6.38;;;5.28;;
56255;SDS011;57229;51.432;-2.598;2023-10-08T12:43:17;5.40;;;4.85;;
56255;SDS011;57229;51.432;-2.598;2023-10-08T12:45:51;6.00;;;5.25;;
56255;SDS011;57229;51.432;-2.598;2023-10-08T12:48:27;6.57;;;5.00;;
56255;SDS011;57229;51.432;-2.598;2023-10-08T12:50:54;8.77;;;5.03;;
56255;SDS011;57229;51.432;-2.598;2023-10-08T12:53:23;5.85;;;4.60;;
56255;SDS011;57229;51.432;-2.598;2023-10-08T12:55:55;6.22;;;4.70;;
56255;SDS011;57229;51.432;-2.598;2023-10-08T12:58:23;5.30;;;4.72;;
56255;SDS011;57229;51.432;-2.598;2023-10-08T13:00:55;9.10;;;5.93;;
56255;SDS011;57229;51.432;-2.598;2023-10-08T13:03:28;8.60;;;5.47;;
56255;SDS011;57229;51.432;-2.598;2023-10-08T13:05:56;5.90;;;4.82;;
56255;SDS011;57229;51.432;-2.598;2023-10-08T13:08:31;7.63;;;5.07;;
56255;SDS011;57229;51.432;-2.598;2023-10-08T13:10:59;11.02;;;5.00;;
56255;SDS011;57229;51.432;-2.598;2023-10-08T13:13:26;5.93;;;4.65;;
56255;SDS011;57229;51.432;-2.598;2023-10-08T13:15:52;10.38;;;5.80;;
56255;SDS011;57229;51.432;-2.598;2023-10-08T13:18:24;11.00;;;5.53;;
56255;SDS011;57229;51.432;-2.598;2023-10-08T13:20:52;6.18;;;5.28;;
56255;SDS011;57229;51.432;-2.598;2023-10-08T13:23:19;5.70;;;4.80;;
56255;SDS011;57229;51.432;-2.598;2023-10-08T13:25:46;15.60;;;6.57;;
56255;SDS011;57229;51.432;-2.598;2023-10-08T13:28:19;6.68;;;4.80;;
56255;SDS011;57229;51.432;-2.598;2023-10-08T13:30:50;7.40;;;5.00;;
56255;SDS011;57229;51.432;-2.598;2023-10-08T13:33:20;14.10;;;6.45;;
56255;SDS011;57229;51.432;-2.598;2023-10-08T13:35:48;5.30;;;4.80;;
56255;SDS011;57229;51.432;-2.598;2023-10-08T13:38:18;8.10;;;4.90;;
56255;SDS011;57229;51.432;-2.598;2023-10-08T13:40:50;5.15;;;4.72;;
56255;SDS011;57229;51.432;-2.598;2023-10-08T13:43:42;6.22;;;5.18;;
56255;SDS011;57229;51.432;-2.598;2023-10-08T13:46:10;7.72;;;4.85;;
56255;SDS011;57229;51.432;-2.598;2023-10-08T13:48:41;6.50;;;4.57;;
56255;SDS011;57229;51.432;-2.598;2023-10-08T13:51:11;6.85;;;4.65;;
56255;SDS011;57229;51.432;-2.598;2023-10-08T13:53:40;7.05;;;4.55;;
56255;SDS011;57229;51.432;-2.598;2023-10-08T13:56:10;4.80;;;4.30;;
56255;SDS011;57229;51.432;-2.598;2023-10-08T13:58:36;6.63;;;5.05;;
56255;SDS011;57229;51.432;-2.598;2023-10-08T14:01:06;7.45;;;4.60;;
56255;SDS011;57229;51.432;-2.598;2023-10-08T14:03:47;5.88;;;4.78;;
56255;SDS011;57229;51.432;-2.598;2023-10-08T14:06:14;5.10;;;4.60;;
56255;SDS011;57229;51.432;-2.598;2023-10-08T14:08:41;5.93;;;4.75;;
56255;SDS011;57229;51.432;-2.598;2023-10-08T14:11:09;5.10;;;4.60;;
56255;SDS011;57229;51.432;-2.598;2023-10-08T14:13:37;5.47;;;4.72;;
56255;SDS011;57229;51.432;-2.598;2023-10-08T14:16:07;5.93;;;4.70;;
56255;SDS011;57229;51.432;-2.598;2023-10-08T14:18:36;6.10;;;4.82;;
56255;SDS011;57229;51.432;-2.598;2023-10-08T14:21:18;5.22;;;4.38;;
56255;SDS011;57229;51.432;-2.598;2023-10-08T14:23:48;5.15;;;4.55;;
56255;SDS011;57229;51.432;-2.598;2023-10-08T14:26:22;7.22;;;4.70;;
56255;SDS011;57229;51.432;-2.598;2023-10-08T14:28:48;5.10;;;4.60;;
56255;SDS011;57229;51.432;-2.598;2023-10-08T14:31:23;5.15;;;4.65;;
56255;SDS011;57229;51.432;-2.598;2023-10-08T14:33:51;6.75;;;4.40;;
56255;SDS011;57229;51.432;-2.598;2023-10-08T14:36:24;6.28;;;4.80;;
56255;SDS011;57229;51.432;-2.598;2023-10-08T14:39:09;4.80;;;4.40;;
56255;SDS011;57229;51.432;-2.598;2023-10-08T14:41:53;5.70;;;4.80;;
56255;SDS011;57229;51.432;-2.598;2023-10-08T14:44:42;7.18;;;4.80;;
56255;SDS011;57229;51.432;-2.598;2023-10-08T14:47:07;6.43;;;4.65;;
56255;SDS011;57229;51.432;-2.598;2023-10-08T14:49:33;6.75;;;4.70;;
56255;SDS011;57229;51.432;-2.598;2023-10-08T14:52:00;4.85;;;4.35;;
56255;SDS011;57229;51.432;-2.598;2023-10-08T14:54:29;5.00;;;4.60;;
56255;SDS011;57229;51.432;-2.598;2023-10-08T14:56:55;7.45;;;5.05;;
56255;SDS011;57229;51.432;-2.598;2023-10-08T14:59:22;5.43;;;4.57;;
56255;SDS011;57229;51.432;-2.598;2023-10-08T15:01:48;5.30;;;4.65;;
56255;SDS011;57229;51.432;-2.598;2023-10-08T15:04:15;5.10;;;4.57;;
56255;SDS011;57229;51.432;-2.598;2023-10-08T15:06:41;5.05;;;4.60;;